createdAt,value
2017-10-06T00:02:16.694Z,99.90
2017-10-06T00:04:43.287Z,99.90
2017-10-06T00:07:09.730Z,99.90
2017-10-06T00:09:36.580Z,99.90
2017-10-06T00:12:09.880Z,99.90
2017-10-06T00:14:36.298Z,99.90
2017-10-06T00:17:02.838Z,99.90
2017-10-06T00:19:29.455Z,99.90
2017-10-06T00:21:56.776Z,99.90
2017-10-06T00:24:23.243Z,99.90
2017-10-06T00:26:49.663Z,99.90
2017-10-06T00:29:16.107Z,99.90
2017-10-06T00:31:42.545Z,99.90
2017-10-06T00:34:09.024Z,99.90
2017-10-06T00:36:35.511Z,99.90
2017-10-06T00:39:02.757Z,99.90
2017-10-06T00:41:29.214Z,99.90
2017-10-06T00:43:56.127Z,99.90
2017-10-06T00:46:22.581Z,99.90
2017-10-06T00:48:49.080Z,99.90
2017-10-06T00:51:16.240Z,99.90
2017-10-06T00:53:42.722Z,99.90
2017-10-06T00:56:09.194Z,99.90
2017-10-06T00:58:36.410Z,99.90
2017-10-06T01:01:02.865Z,99.90
2017-10-06T01:03:29.288Z,99.90
2017-10-06T01:05:55.971Z,99.90
2017-10-06T01:08:22.525Z,99.90
2017-10-06T01:10:50.498Z,99.90
2017-10-06T01:13:17.262Z,99.90
2017-10-06T01:15:44.575Z,99.90
2017-10-06T01:18:11.048Z,99.90
2017-10-06T01:20:37.525Z,99.90
2017-10-06T01:23:04.008Z,99.90
2017-10-06T01:25:30.507Z,99.90
2017-10-06T01:27:56.956Z,99.90
2017-10-06T01:30:24.168Z,99.90
2017-10-06T01:32:50.660Z,99.90
2017-10-06T01:35:17.114Z,99.90
2017-10-06T01:37:44.315Z,99.90
2017-10-06T01:40:10.789Z,99.90
2017-10-06T01:42:37.215Z,99.90
2017-10-06T01:45:04.432Z,99.90
2017-10-06T01:47:30.902Z,99.90
2017-10-06T01:49:58.161Z,99.90
2017-10-06T01:52:24.746Z,99.90
2017-10-06T01:54:51.267Z,99.90
2017-10-06T01:57:21.482Z,99.90
2017-10-06T01:59:48.027Z,99.90
2017-10-06T02:02:14.586Z,99.90
2017-10-06T02:04:41.138Z,99.90
2017-10-06T02:07:07.602Z,99.90
2017-10-06T02:09:34.111Z,99.90
2017-10-06T02:12:01.308Z,99.90
2017-10-06T02:14:29.158Z,99.90
2017-10-06T02:16:55.826Z,99.90
2017-10-06T02:19:22.302Z,99.90
2017-10-06T02:21:48.760Z,99.90
2017-10-06T02:24:15.264Z,99.90
2017-10-06T02:26:41.742Z,99.90
2017-10-06T02:29:08.203Z,99.90
2017-10-06T02:31:35.420Z,99.90
2017-10-06T02:34:01.926Z,99.90
2017-10-06T02:36:28.348Z,99.90
2017-10-06T02:38:54.823Z,99.90
2017-10-06T02:41:21.279Z,99.90
2017-10-06T02:43:48.511Z,99.90
2017-10-06T02:46:14.928Z,99.90
2017-10-06T02:48:41.411Z,99.90
2017-10-06T02:51:07.845Z,99.90
2017-10-06T02:53:34.311Z,99.90
2017-10-06T02:56:01.635Z,99.90
2017-10-06T02:58:28.352Z,99.90
2017-10-06T03:00:54.828Z,99.90
2017-10-06T03:03:22.006Z,99.90
2017-10-06T03:05:48.464Z,99.90
2017-10-06T03:08:14.863Z,99.90
2017-10-06T03:10:42.054Z,99.90
2017-10-06T03:13:08.511Z,99.90
2017-10-06T03:15:34.953Z,99.90
2017-10-06T03:18:01.631Z,99.90
2017-10-06T03:20:28.079Z,99.90
2017-10-06T03:22:54.492Z,99.90
2017-10-06T03:25:20.938Z,99.90
2017-10-06T03:27:47.375Z,99.90
2017-10-06T03:30:13.801Z,99.90
2017-10-06T03:32:40.954Z,99.90
2017-10-06T03:35:07.385Z,99.90
2017-10-06T03:37:33.919Z,99.90
2017-10-06T03:40:00.323Z,99.90
2017-10-06T03:42:27.479Z,99.90
2017-10-06T03:44:53.964Z,99.90
2017-10-06T03:47:21.233Z,99.90
2017-10-06T03:49:47.679Z,99.90
2017-10-06T03:52:15.652Z,99.90
2017-10-06T03:54:43.091Z,99.90
2017-10-06T03:57:09.547Z,99.90
2017-10-06T03:59:35.975Z,99.90
2017-10-06T04:02:02.436Z,99.90
2017-10-06T04:04:28.879Z,99.90
2017-10-06T04:06:55.504Z,99.90
2017-10-06T04:09:22.871Z,99.90
2017-10-06T04:11:49.305Z,99.90
2017-10-06T04:14:16.462Z,99.90
2017-10-06T04:16:43.648Z,99.90
2017-10-06T04:19:10.131Z,99.90
2017-10-06T04:21:37.235Z,99.90
2017-10-06T04:24:03.932Z,99.90
2017-10-06T04:26:30.627Z,99.90
2017-10-06T04:28:57.847Z,99.90
2017-10-06T04:31:24.284Z,99.90
2017-10-06T04:33:50.738Z,99.90
2017-10-06T04:36:17.398Z,99.90
2017-10-06T04:38:43.982Z,99.90
2017-10-06T04:41:10.453Z,99.90
2017-10-06T04:43:37.659Z,99.90
2017-10-06T04:46:04.089Z,99.90
2017-10-06T04:48:30.537Z,99.90
2017-10-06T04:50:57.040Z,99.90
2017-10-06T04:53:24.754Z,99.90
2017-10-06T04:55:52.554Z,99.90
2017-10-06T04:58:20.063Z,99.90
2017-10-06T05:00:46.567Z,99.90
2017-10-06T05:03:13.129Z,99.90
2017-10-06T05:05:39.733Z,99.90
2017-10-06T05:08:07.311Z,99.90
2017-10-06T05:10:35.364Z,99.90
2017-10-06T05:13:02.188Z,99.90
2017-10-06T05:15:29.747Z,99.90
2017-10-06T05:17:57.109Z,99.90
2017-10-06T05:20:24.787Z,99.90
2017-10-06T05:22:52.096Z,99.90
2017-10-06T05:25:18.608Z,99.90
2017-10-06T05:27:46.002Z,99.90
2017-10-06T05:30:14.013Z,99.90
2017-10-06T05:32:40.622Z,99.90
2017-10-06T05:35:08.700Z,99.90
2017-10-06T05:37:35.268Z,99.90
2017-10-06T05:40:02.690Z,99.90
2017-10-06T05:42:30.256Z,99.90
2017-10-06T05:44:58.170Z,99.90
2017-10-06T05:47:26.278Z,99.90
2017-10-06T05:49:53.765Z,99.90
2017-10-06T05:52:20.990Z,99.90
2017-10-06T05:54:47.502Z,99.90
2017-10-06T05:57:16.698Z,99.90
2017-10-06T05:59:45.468Z,99.90
2017-10-06T06:02:13.295Z,99.90
2017-10-06T06:04:39.846Z,99.90
2017-10-06T06:07:08.133Z,99.90
2017-10-06T06:09:35.474Z,99.90
2017-10-06T06:12:02.054Z,99.90
2017-10-06T06:14:28.629Z,99.90
2017-10-06T06:16:55.944Z,99.90
2017-10-06T06:19:22.543Z,99.90
2017-10-06T06:21:50.442Z,99.90
2017-10-06T06:24:17.709Z,99.90
2017-10-06T06:26:44.906Z,99.90
2017-10-06T06:29:12.240Z,99.90
2017-10-06T06:31:39.630Z,99.90
2017-10-06T06:34:06.194Z,99.90
2017-10-06T06:36:33.432Z,99.90
2017-10-06T06:39:01.607Z,99.90
2017-10-06T06:41:30.509Z,99.90
2017-10-06T06:43:58.643Z,99.90
2017-10-06T06:46:25.231Z,99.90
2017-10-06T06:48:51.890Z,99.90
2017-10-06T06:51:21.171Z,99.90
2017-10-06T06:53:48.586Z,99.90
2017-10-06T06:56:16.961Z,99.90
2017-10-06T06:58:43.874Z,99.90
2017-10-06T07:01:12.292Z,99.90
2017-10-06T07:03:39.329Z,99.90
2017-10-06T07:06:06.025Z,99.90
2017-10-06T07:08:32.871Z,99.90
2017-10-06T07:11:01.177Z,99.90
2017-10-06T07:13:28.699Z,99.90
2017-10-06T07:15:55.990Z,99.90
2017-10-06T07:18:22.599Z,99.60
2017-10-06T07:20:53.022Z,99.40
2017-10-06T07:23:21.307Z,99.00
2017-10-06T07:25:50.078Z,99.30
2017-10-06T07:28:19.349Z,99.10
2017-10-06T07:30:46.114Z,99.10
2017-10-06T07:33:15.318Z,99.10
2017-10-06T07:35:43.309Z,99.10
2017-10-06T07:38:10.387Z,99.30
2017-10-06T07:40:37.717Z,99.00
2017-10-06T07:43:04.543Z,99.00
2017-10-06T07:45:32.050Z,98.30
2017-10-06T07:47:58.647Z,98.30
2017-10-06T07:50:25.276Z,98.30
2017-10-06T07:52:54.207Z,97.80
2017-10-06T07:55:21.493Z,97.70
2017-10-06T07:57:51.610Z,97.70
2017-10-06T08:00:21.153Z,97.60
2017-10-06T08:02:49.358Z,97.80
2017-10-06T08:05:17.741Z,97.20
2017-10-06T08:07:44.812Z,97.20
2017-10-06T08:10:11.590Z,93.70
2017-10-06T08:12:39.437Z,93.50
2017-10-06T08:15:07.582Z,93.50
2017-10-06T08:17:35.096Z,92.70
2017-10-06T08:20:02.463Z,91.80
2017-10-06T08:22:28.979Z,90.70
2017-10-06T08:24:57.392Z,90.50
2017-10-06T08:27:24.059Z,90.60
2017-10-06T08:29:50.588Z,90.70
2017-10-06T08:32:17.220Z,90.00
2017-10-06T08:34:45.228Z,89.00
2017-10-06T08:37:12.499Z,89.00
2017-10-06T08:39:39.807Z,89.40
2017-10-06T08:42:07.819Z,90.00
2017-10-06T08:44:34.351Z,90.50
2017-10-06T08:47:03.137Z,90.00
2017-10-06T08:49:31.251Z,91.80
2017-10-06T08:51:59.727Z,91.80
2017-10-06T08:54:27.594Z,93.40
2017-10-06T08:56:54.119Z,94.70
2017-10-06T08:59:20.738Z,96.30
2017-10-06T09:01:48.207Z,97.30
2017-10-06T09:04:14.858Z,97.70
2017-10-06T09:06:42.118Z,98.30
2017-10-06T09:09:08.680Z,98.70
2017-10-06T09:11:36.202Z,99.00
2017-10-06T09:14:02.768Z,99.30
2017-10-06T09:16:29.969Z,99.20
2017-10-06T09:18:57.316Z,99.90
2017-10-06T09:21:24.901Z,99.90
2017-10-06T09:23:51.392Z,99.90
2017-10-06T09:26:20.438Z,99.90
2017-10-06T09:28:48.555Z,99.90
2017-10-06T09:31:16.838Z,99.90
2017-10-06T09:33:46.368Z,99.70
2017-10-06T09:36:14.058Z,99.60
2017-10-06T09:38:41.311Z,98.90
2017-10-06T09:41:08.585Z,99.20
2017-10-06T09:43:37.639Z,99.80
2017-10-06T09:46:06.789Z,99.80
2017-10-06T09:48:33.308Z,99.90
2017-10-06T09:50:59.833Z,99.90
2017-10-06T09:53:26.974Z,99.90
2017-10-06T09:55:53.497Z,99.90
2017-10-06T09:58:20.092Z,99.90
2017-10-06T10:00:46.756Z,99.90
2017-10-06T10:03:15.068Z,99.90
2017-10-06T10:05:45.216Z,99.90
2017-10-06T10:08:12.447Z,99.90
2017-10-06T10:10:42.275Z,99.90
2017-10-06T10:13:11.304Z,99.90
2017-10-06T10:15:38.539Z,99.60
2017-10-06T10:18:05.646Z,98.30
2017-10-06T10:20:33.037Z,98.70
2017-10-06T10:23:01.215Z,97.10
2017-10-06T10:25:30.000Z,97.10
2017-10-06T10:27:56.580Z,96.00
2017-10-06T10:30:23.223Z,95.20
2017-10-06T10:32:50.071Z,95.80
2017-10-06T10:35:18.729Z,92.80
2017-10-06T10:37:45.326Z,92.30
2017-10-06T10:40:12.728Z,92.40
2017-10-06T10:42:40.997Z,94.70
2017-10-06T10:45:07.619Z,94.70
2017-10-06T10:47:34.836Z,93.80
2017-10-06T10:50:01.424Z,95.00
2017-10-06T10:52:28.851Z,97.00
2017-10-06T10:54:56.647Z,97.00
2017-10-06T10:57:24.531Z,95.50
2017-10-06T10:59:51.857Z,93.50
2017-10-06T11:02:20.030Z,93.50
2017-10-06T11:04:47.382Z,92.80
2017-10-06T11:07:13.961Z,92.60
2017-10-06T11:09:41.539Z,92.10
2017-10-06T11:12:08.933Z,92.60
2017-10-06T11:14:36.410Z,90.00
2017-10-06T11:17:03.822Z,90.00
2017-10-06T11:19:30.502Z,90.30
2017-10-06T11:21:57.069Z,88.60
2017-10-06T11:24:24.730Z,84.20
2017-10-06T11:26:53.253Z,84.20
2017-10-06T11:29:22.334Z,89.40
2017-10-06T11:31:49.673Z,89.40
2017-10-06T11:34:16.315Z,91.50
2017-10-06T11:36:42.988Z,92.70
2017-10-06T11:39:11.080Z,92.80
2017-10-06T11:41:37.846Z,93.40
2017-10-06T11:44:04.394Z,94.10
2017-10-06T11:46:31.071Z,94.80
2017-10-06T11:48:57.641Z,95.60
2017-10-06T11:51:25.670Z,96.00
2017-10-06T11:53:52.433Z,96.00
2017-10-06T11:56:18.954Z,97.70
2017-10-06T11:58:45.553Z,95.40
2017-10-06T12:01:15.442Z,97.70
2017-10-06T12:03:46.591Z,98.50
2017-10-06T12:06:13.323Z,98.30
2017-10-06T12:08:41.518Z,99.10
2017-10-06T12:11:08.091Z,99.10
2017-10-06T12:13:35.507Z,99.90
2017-10-06T12:16:03.398Z,99.90
2017-10-06T12:18:31.284Z,99.90
2017-10-06T12:20:57.936Z,99.90
2017-10-06T12:23:25.112Z,99.90
2017-10-06T12:25:51.706Z,99.90
2017-10-06T12:28:19.036Z,99.90
2017-10-06T12:30:45.581Z,99.90
2017-10-06T12:33:12.113Z,99.90
2017-10-06T12:35:40.285Z,99.90
2017-10-06T12:38:06.911Z,99.90
2017-10-06T12:40:34.545Z,99.90
2017-10-06T12:43:01.899Z,99.90
2017-10-06T12:45:30.306Z,99.90
2017-10-06T12:47:57.628Z,99.90
2017-10-06T12:50:25.653Z,99.90
2017-10-06T12:52:54.332Z,99.90
2017-10-06T12:55:21.922Z,99.90
2017-10-06T12:57:51.256Z,99.90
2017-10-06T13:00:17.954Z,99.90
2017-10-06T13:02:47.107Z,99.50
2017-10-06T13:05:15.150Z,97.50
2017-10-06T13:07:43.201Z,97.50
2017-10-06T13:10:09.795Z,96.90
2017-10-06T13:12:36.318Z,97.20
2017-10-06T13:15:02.822Z,98.30
2017-10-06T13:20:24.014Z,93.60
2017-10-06T13:22:50.463Z,93.60
2017-10-06T13:25:17.599Z,95.30
2017-10-06T13:27:44.019Z,95.30
2017-10-06T13:30:10.507Z,95.10
2017-10-06T13:32:36.993Z,94.40
2017-10-06T13:35:03.621Z,95.60
2017-10-06T13:37:30.069Z,95.60
2017-10-06T13:39:56.481Z,96.10
2017-10-06T13:42:22.880Z,94.30
2017-10-06T13:44:50.066Z,93.80
2017-10-06T13:47:17.257Z,93.60
2017-10-06T13:49:44.447Z,93.60
2017-10-06T13:52:10.922Z,93.80
2017-10-06T13:54:37.356Z,93.80
2017-10-06T13:57:03.830Z,92.70
2017-10-06T13:59:31.086Z,91.10
2017-10-06T14:01:57.546Z,91.00
2017-10-06T14:04:24.710Z,92.20
2017-10-06T14:06:51.292Z,92.20
2017-10-06T14:09:18.589Z,91.40
2017-10-06T14:11:45.741Z,92.10
2017-10-06T14:14:12.187Z,92.10
2017-10-06T14:16:38.699Z,93.80
2017-10-06T14:19:05.225Z,92.50
2017-10-06T14:21:31.811Z,91.70
2017-10-06T14:23:58.273Z,91.20
2017-10-06T14:26:25.096Z,91.40
2017-10-06T14:28:52.256Z,90.50
2017-10-06T14:31:18.704Z,90.50
2017-10-06T14:33:45.144Z,91.70
2017-10-06T14:36:11.522Z,92.70
2017-10-06T14:38:39.385Z,92.40
2017-10-06T14:41:05.808Z,92.50
2017-10-06T14:43:32.252Z,94.30
2017-10-06T14:45:58.669Z,94.60
2017-10-06T14:48:25.321Z,95.60
2017-10-06T14:50:51.795Z,96.60
2017-10-06T14:53:19.497Z,97.40
2017-10-06T14:55:46.019Z,97.90
2017-10-06T14:58:12.408Z,98.10
2017-10-06T15:00:38.868Z,97.30
2017-10-06T15:03:05.266Z,97.50
2017-10-06T15:05:31.692Z,97.10
2017-10-06T15:07:58.133Z,96.40
2017-10-06T15:10:24.619Z,97.10
2017-10-06T15:12:51.200Z,96.90
2017-10-06T15:15:18.385Z,97.50
2017-10-06T15:17:44.884Z,97.50
2017-10-06T15:20:11.288Z,98.20
2017-10-06T15:22:39.196Z,97.60
2017-10-06T15:25:06.413Z,98.00
2017-10-06T15:27:32.839Z,98.00
2017-10-06T15:29:59.352Z,98.20
2017-10-06T15:32:25.836Z,98.50
2017-10-06T15:34:53.139Z,99.00
2017-10-06T15:37:19.617Z,99.00
2017-10-06T15:39:46.756Z,99.20
2017-10-06T15:42:13.219Z,98.90
2017-10-06T15:44:39.669Z,99.10
2017-10-06T15:47:06.097Z,99.20
2017-10-06T15:49:33.230Z,99.10
2017-10-06T15:51:59.622Z,99.00
2017-10-06T15:54:26.036Z,99.30
2017-10-06T15:56:53.148Z,99.30
2017-10-06T15:59:19.521Z,99.30
2017-10-06T16:01:46.669Z,99.30
2017-10-06T16:04:13.065Z,99.20
2017-10-06T16:06:40.368Z,99.70
2017-10-06T16:09:06.805Z,99.70
2017-10-06T16:11:33.213Z,99.90
2017-10-06T16:13:59.606Z,99.90
2017-10-06T16:16:26.124Z,99.90
2017-10-06T16:18:52.573Z,99.90
2017-10-06T16:21:19.052Z,99.90
2017-10-06T16:23:45.452Z,99.90
2017-10-06T16:26:13.674Z,99.90
2017-10-06T16:28:40.157Z,99.90
2017-10-06T16:31:06.558Z,99.90
2017-10-06T16:33:35.994Z,99.90
2017-10-06T16:36:02.417Z,99.90
2017-10-06T16:38:28.868Z,99.90
2017-10-06T16:40:55.259Z,99.90
2017-10-06T16:43:21.700Z,99.90
2017-10-06T16:45:48.101Z,99.90
2017-10-06T16:48:14.603Z,99.90
2017-10-06T16:50:40.993Z,99.90
2017-10-06T16:53:08.150Z,99.90
2017-10-06T16:55:34.556Z,99.90
2017-10-06T16:58:00.937Z,99.90
2017-10-06T17:00:28.125Z,99.90
2017-10-06T17:02:55.319Z,99.90
2017-10-06T17:05:21.764Z,99.90
2017-10-06T17:07:48.167Z,99.90
2017-10-06T17:10:14.620Z,99.90
2017-10-06T17:12:41.035Z,99.90
2017-10-06T17:15:08.269Z,99.90
2017-10-06T17:17:34.811Z,99.90
2017-10-06T17:20:02.041Z,99.90
2017-10-06T17:22:28.580Z,99.90
2017-10-06T17:24:55.049Z,99.90
2017-10-06T17:27:21.479Z,99.90
2017-10-06T17:29:50.017Z,99.90
2017-10-06T17:32:16.440Z,99.90
2017-10-06T17:34:43.588Z,99.90
2017-10-06T17:37:09.954Z,99.90
2017-10-06T17:39:36.337Z,99.90
2017-10-06T17:42:02.760Z,99.90
2017-10-06T17:44:29.869Z,99.90
2017-10-06T17:46:56.221Z,99.90
2017-10-06T17:49:22.570Z,99.90
2017-10-06T17:51:49.748Z,99.90
2017-10-06T17:54:16.185Z,99.90
2017-10-06T17:56:43.317Z,99.90
2017-10-06T17:59:09.731Z,99.90
2017-10-06T18:01:36.833Z,99.90
2017-10-06T18:04:03.177Z,99.90
2017-10-06T18:06:29.557Z,99.90
2017-10-06T18:08:56.657Z,99.90
2017-10-06T18:11:22.997Z,99.90
2017-10-06T18:13:49.737Z,99.90
2017-10-06T18:16:16.132Z,99.90
2017-10-06T18:18:42.512Z,99.90
2017-10-06T18:21:09.620Z,99.90
2017-10-06T18:23:35.957Z,99.90
2017-10-06T18:26:02.376Z,99.90
2017-10-06T18:28:29.500Z,99.90
2017-10-06T18:30:57.349Z,99.90
2017-10-06T18:33:23.714Z,99.90
2017-10-06T18:35:50.091Z,99.90
2017-10-06T18:38:16.456Z,99.90
2017-10-06T18:40:42.828Z,99.90
2017-10-06T18:43:09.185Z,99.90
2017-10-06T18:45:35.556Z,99.90
2017-10-06T18:48:01.917Z,99.90
2017-10-06T18:50:28.280Z,99.90
2017-10-06T18:52:54.645Z,99.90
2017-10-06T18:55:21.017Z,99.90
2017-10-06T18:57:48.280Z,99.90
2017-10-06T19:00:15.517Z,99.90
2017-10-06T19:02:41.871Z,99.90
2017-10-06T19:05:08.243Z,99.90
2017-10-06T19:07:35.340Z,99.90
2017-10-06T19:10:01.795Z,99.90
2017-10-06T19:12:28.165Z,99.90
2017-10-06T19:14:54.531Z,99.90
2017-10-06T19:17:21.648Z,99.90
2017-10-06T19:19:48.047Z,99.90
2017-10-06T19:22:14.414Z,99.90
2017-10-06T19:24:40.775Z,99.90
2017-10-06T19:27:07.148Z,99.90
2017-10-06T19:29:33.525Z,99.90
2017-10-06T19:31:59.878Z,99.90
2017-10-06T19:34:26.271Z,99.90
2017-10-06T19:36:53.393Z,99.90
2017-10-06T19:39:19.763Z,99.90
2017-10-06T19:41:46.168Z,99.90
2017-10-06T19:44:12.577Z,99.90
2017-10-06T19:46:39.693Z,99.90
2017-10-06T19:49:06.068Z,99.90
2017-10-06T19:51:33.195Z,99.90
2017-10-06T19:53:59.569Z,99.90
2017-10-06T19:56:25.935Z,99.90
2017-10-06T19:58:52.368Z,99.90
2017-10-06T20:01:19.479Z,99.90
2017-10-06T20:03:45.853Z,99.90
2017-10-06T20:06:13.697Z,99.90
2017-10-06T20:08:40.076Z,99.90
2017-10-06T20:11:07.209Z,99.90
2017-10-06T20:13:33.620Z,99.90
2017-10-06T20:16:00.012Z,99.90
2017-10-06T20:18:26.372Z,99.90
2017-10-06T20:20:52.773Z,99.90
2017-10-06T20:23:19.149Z,99.90
2017-10-06T20:25:46.313Z,99.90
2017-10-06T20:28:12.667Z,99.90
2017-10-06T20:30:39.192Z,99.90
2017-10-06T20:33:05.541Z,99.90
2017-10-06T20:35:31.892Z,99.90
2017-10-06T20:37:58.245Z,99.90
2017-10-06T20:40:24.893Z,99.90
2017-10-06T20:42:52.021Z,99.90
2017-10-06T20:45:18.431Z,99.90
2017-10-06T20:47:45.568Z,99.90
2017-10-06T20:50:12.716Z,99.90
2017-10-06T20:52:40.557Z,99.90
2017-10-06T20:55:06.919Z,99.90
2017-10-06T20:57:33.293Z,99.90
2017-10-06T21:00:00.408Z,99.90
2017-10-06T21:02:26.810Z,99.90
2017-10-06T21:04:54.143Z,99.90
2017-10-06T21:07:21.997Z,99.90
2017-10-06T21:09:48.361Z,99.90
2017-10-06T21:12:14.721Z,99.90
2017-10-06T21:14:42.615Z,99.90
2017-10-06T21:17:09.715Z,99.90
2017-10-06T21:19:36.222Z,99.90
2017-10-06T21:22:02.592Z,99.90
2017-10-06T21:24:29.701Z,99.90
2017-10-06T21:26:56.031Z,99.90
2017-10-06T21:29:22.381Z,99.90
2017-10-06T21:31:48.776Z,99.90
2017-10-06T21:34:15.121Z,99.90
2017-10-06T21:36:42.252Z,99.90
2017-10-06T21:39:08.596Z,99.90
2017-10-06T21:41:34.951Z,99.90
2017-10-06T21:44:02.776Z,99.90
2017-10-06T21:46:29.160Z,99.90
2017-10-06T21:48:55.549Z,99.90
2017-10-06T21:51:21.920Z,99.90
2017-10-06T21:53:48.293Z,99.90
2017-10-06T21:56:15.393Z,99.90
2017-10-06T21:58:41.772Z,99.90
2017-10-06T22:01:08.151Z,99.90
2017-10-06T22:03:34.522Z,99.90
2017-10-06T22:06:00.908Z,99.90
2017-10-06T22:08:27.265Z,99.90
2017-10-06T22:10:53.619Z,99.90
2017-10-06T22:13:20.750Z,99.90
2017-10-06T22:15:47.085Z,99.90
2017-10-06T22:18:13.444Z,99.90
2017-10-06T22:20:40.621Z,99.90
2017-10-06T22:23:06.969Z,99.90
2017-10-06T22:25:33.329Z,99.90
2017-10-06T22:28:00.388Z,99.90
2017-10-06T22:30:27.528Z,99.90
2017-10-06T22:32:54.627Z,99.90
2017-10-06T22:35:21.194Z,99.90
2017-10-06T22:37:47.524Z,99.90
2017-10-06T22:40:13.919Z,99.90
2017-10-06T22:42:40.996Z,99.90
2017-10-06T22:45:08.100Z,99.90
2017-10-06T22:47:34.424Z,99.90
2017-10-06T22:50:00.748Z,99.90
2017-10-06T22:52:27.882Z,99.90
2017-10-06T22:54:54.240Z,99.90
2017-10-06T22:57:20.608Z,99.90
2017-10-06T22:59:46.955Z,99.90
2017-10-06T23:02:13.315Z,99.90
2017-10-06T23:04:39.667Z,99.90
2017-10-06T23:07:05.992Z,99.90
2017-10-06T23:09:32.379Z,99.90
2017-10-06T23:11:58.707Z,99.90
2017-10-06T23:14:25.199Z,99.90
2017-10-06T23:16:51.579Z,99.90
2017-10-06T23:19:17.912Z,99.90
2017-10-06T23:21:44.241Z,99.90
2017-10-06T23:24:11.324Z,99.90
2017-10-06T23:26:37.706Z,99.90
2017-10-06T23:29:04.090Z,99.90
2017-10-06T23:31:30.438Z,99.90
2017-10-06T23:33:56.777Z,99.90
2017-10-06T23:36:23.172Z,99.90
2017-10-06T23:38:49.508Z,99.90
2017-10-06T23:41:15.870Z,99.90
2017-10-06T23:43:42.188Z,99.90
2017-10-06T23:46:08.575Z,99.90
2017-10-06T23:48:35.648Z,99.90
2017-10-06T23:51:02.744Z,99.90
2017-10-06T23:53:29.052Z,99.90
2017-10-06T23:55:55.396Z,99.90
2017-10-06T23:58:22.452Z,99.90
